Norwich, New York
Current Conditions -  °F | °C
As of 11:53 AM on Friday 24 Oct 2014 (Local Time) from KBGM Reporting Station
Clear Clear  
Wind Chill: 55°   Ceiling: Unl
Heat Index: 55°   Visibility: 10mi
Dew Point: 40°   Wind: 15mph
Humidity: 57%   Direction: 330°NNW
Pressure: 29.9"   Gusts: 25mph
Location:  42.54°N, 75.52°W
Report Text: KBGM 241553Z 33013G22KT 10SM CLR 13/04 A2990 RMK AO2 SLP128 T01280044
Loading
Personal Weather Stations






























Interactive Weather Map
Tropical Storm Tracking
New forecast layout! Learn more

10-Day Weather Forecast

Advertisements
Track Severe Weather on mobile